Terminal Aerodrome Forecast
Issued by NWS

Home | Current Version | Previous Version | Text Only | Print | Product List | Glossary On
Versions: 1 2 3 4 5 6 7 8 9 10 11 12 13 14 15 16 17
000
FTUS45 KABQ 251740
TAFGUP
TAF
KGUP 251740Z 2518/2618 21010KT P6SM BKN250
     FM252000 24015G25KT P6SM SCT120 BKN250
     FM260300 24010G18KT P6SM VCSH SCT020 BKN040
     FM260900 23007KT P6SM SCT019 BKN035
     FM261600 26012G20KT P6SM SCT040=

USA.gov is the U.S. government's official web portal to all federal, state and local government web resources and services.